TAF

Letisková predpoveď TAF

Informácie o správe TAF

23.05.2018 - 11:00 UTC (Včera)

TAF AMD LZKZ 231529Z 2315/2412 10008KT 9999 SCT045
    TEMPO 2315/2322 7000 SHRA BKN035 FEW040TCU
    PROB40 TEMPO 2315/2320 20015G25KT 5000 TSRA BKN027 SCT030CB
    BECMG 2321/2323 03010KT
    PROB40 TEMPO 2410/2412 01015G25KT 6000 TSRA BKN030 SCT033CB=

23.05.2018 - 11:00 UTC (Včera)

TAF LZSL 231100Z 2312/2321 13007KT 9999 FEW035TCU SCT040
    TEMPO 2312/2320 6000 SHRA FEW030CB BKN050
    PROB40 TEMPO 2312/2318 21015G25KT 3000 TSRA SCT027CB BKN030=
TAF LZPP 231100Z 2312/2321 15012KT 9999 SCT040 FEW050TCU
    PROB40 TEMPO 2312/2319 17015G25KT 5000 TSRA BKN030 SCT035CB
    BECMG 2320/2321 10006KT SCT035=
TAF LZZI 231100Z 2312/2321 08005KT 9999 FEW035TCU SCT045
    TEMPO 2312/2320 6000 SHRA FEW033CB BKN050
    PROB40 TEMPO 2312/2318 23013G25KT 4000 TSRA SCT030CB BKN035=

skok na menu ↑


skok na začiatok stránky ↑